createdAt,value
2019-02-08T00:00:55.440Z,3.10
2019-02-08T00:03:23.432Z,3.10
2019-02-08T00:05:51.206Z,3.10
2019-02-08T00:08:19.254Z,3.00
2019-02-08T00:10:47.158Z,3.00
2019-02-08T00:13:14.911Z,3.10
2019-02-08T00:15:42.671Z,3.00
2019-02-08T00:18:11.058Z,3.00
2019-02-08T00:20:38.829Z,3.10
2019-02-08T00:23:08.252Z,3.00
2019-02-08T00:25:36.588Z,3.00
2019-02-08T00:28:04.818Z,2.90
2019-02-08T00:30:32.548Z,2.90
2019-02-08T00:33:00.557Z,3.00
2019-02-08T00:35:28.346Z,3.00
2019-02-08T00:37:56.208Z,3.00
2019-02-08T00:40:24.627Z,3.00
2019-02-08T00:42:52.781Z,3.00
2019-02-08T00:45:20.682Z,3.00
2019-02-08T00:47:48.703Z,3.00
2019-02-08T00:50:18.900Z,3.10
2019-02-08T00:52:47.674Z,3.10
2019-02-08T00:55:16.009Z,3.10
2019-02-08T00:57:43.960Z,3.10
2019-02-08T01:00:12.618Z,3.20
2019-02-08T01:02:41.333Z,3.10
2019-02-08T01:05:12.139Z,3.10
2019-02-08T01:07:40.161Z,3.20
2019-02-08T01:10:16.569Z,3.10
2019-02-08T01:12:44.310Z,3.20
2019-02-08T01:15:12.713Z,3.20
2019-02-08T01:17:40.435Z,3.20
2019-02-08T01:20:12.123Z,3.20
2019-02-08T01:22:39.886Z,3.10
2019-02-08T01:25:11.512Z,3.10
2019-02-08T01:27:39.356Z,3.10
2019-02-08T01:30:11.939Z,3.10
2019-02-08T01:32:39.887Z,3.10
2019-02-08T01:35:08.738Z,3.00
2019-02-08T01:37:36.480Z,3.00
2019-02-08T01:40:09.151Z,3.00
2019-02-08T01:42:36.934Z,3.00
2019-02-08T01:45:06.055Z,2.90
2019-02-08T01:47:33.965Z,2.90
2019-02-08T01:50:01.922Z,2.80
2019-02-08T01:52:29.851Z,2.70
2019-02-08T01:54:57.618Z,2.60
2019-02-08T01:57:25.351Z,2.50
2019-02-08T01:59:53.285Z,2.50
2019-02-08T02:02:21.014Z,2.60
2019-02-08T02:04:48.888Z,2.60
2019-02-08T02:07:19.754Z,2.60
2019-02-08T02:09:48.104Z,2.70
2019-02-08T02:12:15.830Z,2.80
2019-02-08T02:14:43.926Z,2.70
2019-02-08T02:17:11.870Z,2.80
2019-02-08T02:19:40.028Z,2.70
2019-02-08T02:22:07.778Z,2.80
2019-02-08T02:24:35.666Z,2.80
2019-02-08T02:27:03.592Z,2.80
2019-02-08T02:29:31.530Z,2.80
2019-02-08T02:31:59.453Z,2.80
2019-02-08T02:34:27.242Z,2.80
2019-02-08T02:36:55.012Z,2.90
2019-02-08T02:39:22.951Z,2.90
2019-02-08T02:41:50.720Z,2.90
2019-02-08T02:44:18.466Z,2.90
2019-02-08T02:46:46.251Z,2.90
2019-02-08T02:49:14.217Z,2.90
2019-02-08T02:51:41.983Z,2.90
2019-02-08T02:54:09.701Z,2.80
2019-02-08T02:56:37.507Z,2.80
2019-02-08T02:59:05.805Z,2.80
2019-02-08T03:01:33.626Z,2.80
2019-02-08T03:04:01.533Z,2.80
2019-02-08T03:06:29.354Z,2.80
2019-02-08T03:08:57.258Z,2.80
2019-02-08T03:11:25.221Z,2.80
2019-02-08T03:13:53.210Z,2.80
2019-02-08T03:16:20.969Z,2.80
2019-02-08T03:18:48.712Z,2.70
2019-02-08T03:21:16.685Z,2.70
2019-02-08T03:23:44.613Z,2.70
2019-02-08T03:26:12.564Z,2.70
2019-02-08T03:28:40.296Z,2.60
2019-02-08T03:31:08.161Z,2.70
2019-02-08T03:33:35.903Z,2.60
2019-02-08T03:36:04.141Z,2.70
2019-02-08T03:38:31.870Z,2.70
2019-02-08T03:40:59.812Z,2.70
2019-02-08T03:43:27.601Z,2.70
2019-02-08T03:45:55.567Z,2.70
2019-02-08T03:48:23.321Z,2.80
2019-02-08T03:50:51.053Z,2.80
2019-02-08T03:53:18.790Z,2.80
2019-02-08T03:55:46.558Z,2.80
2019-02-08T03:58:14.307Z,2.70
2019-02-08T04:00:48.930Z,2.60
2019-02-08T04:03:16.698Z,2.50
2019-02-08T04:05:44.705Z,2.60
2019-02-08T04:08:12.437Z,2.80
2019-02-08T04:10:40.339Z,2.80
2019-02-08T04:13:08.197Z,2.80
2019-02-08T04:15:36.214Z,2.90
2019-02-08T04:18:04.126Z,2.90
2019-02-08T04:20:31.992Z,2.90
2019-02-08T04:22:59.749Z,3.00
2019-02-08T04:25:27.647Z,3.00
2019-02-08T04:27:55.445Z,2.90
2019-02-08T04:30:27.621Z,2.90
2019-02-08T04:32:55.796Z,2.90
2019-02-08T04:35:23.742Z,2.80
2019-02-08T04:37:51.548Z,2.80
2019-02-08T04:40:20.046Z,2.80
2019-02-08T04:42:47.808Z,2.70
2019-02-08T04:45:16.153Z,2.80
2019-02-08T04:47:44.485Z,2.80
2019-02-08T04:50:18.358Z,2.90
2019-02-08T04:52:46.541Z,2.90
2019-02-08T04:55:14.793Z,2.90
2019-02-08T04:57:42.539Z,2.90
2019-02-08T05:00:18.979Z,2.90
2019-02-08T05:02:46.739Z,2.90
2019-02-08T05:05:14.760Z,2.90
2019-02-08T05:07:42.562Z,2.90
2019-02-08T05:10:12.002Z,2.90
2019-02-08T05:12:39.764Z,2.80
2019-02-08T05:15:08.110Z,2.90
2019-02-08T05:17:36.028Z,2.90
2019-02-08T05:20:05.135Z,3.00
2019-02-08T05:22:32.901Z,3.10
2019-02-08T05:25:00.695Z,3.20
2019-02-08T05:27:28.472Z,3.20
2019-02-08T05:29:56.209Z,3.20
2019-02-08T05:32:23.991Z,3.20
2019-02-08T05:34:51.758Z,3.10
2019-02-08T05:37:19.687Z,3.10
2019-02-08T05:39:47.609Z,3.10
2019-02-08T05:42:15.381Z,3.20
2019-02-08T05:44:43.139Z,3.20
2019-02-08T05:47:11.083Z,3.20
2019-02-08T05:49:38.861Z,3.20
2019-02-08T05:52:06.826Z,3.20
2019-02-08T05:54:34.617Z,3.20
2019-02-08T05:57:02.410Z,3.20
2019-02-08T05:59:30.148Z,3.20
2019-02-08T06:01:58.118Z,3.30
2019-02-08T06:04:25.931Z,3.20
2019-02-08T06:06:53.763Z,3.20
2019-02-08T06:09:21.624Z,3.20
2019-02-08T06:11:49.404Z,3.20
2019-02-08T06:14:17.276Z,3.20
2019-02-08T06:16:46.920Z,3.10
2019-02-08T06:19:14.901Z,3.10
2019-02-08T06:21:42.879Z,3.10
2019-02-08T06:24:10.766Z,3.10
2019-02-08T06:26:38.750Z,3.10
2019-02-08T06:29:06.500Z,3.10
2019-02-08T06:31:34.269Z,3.00
2019-02-08T06:34:02.235Z,3.00
2019-02-08T06:36:30.076Z,2.90
2019-02-08T06:38:57.952Z,3.00
2019-02-08T06:41:25.757Z,3.10
2019-02-08T06:43:53.567Z,3.10
2019-02-08T06:46:21.367Z,3.20
2019-02-08T06:48:49.203Z,3.20
2019-02-08T06:51:17.239Z,3.20
2019-02-08T06:53:45.108Z,3.30
2019-02-08T06:56:30.701Z,3.30
2019-02-08T06:59:18.297Z,3.30
2019-02-08T07:02:08.801Z,3.30
2019-02-08T07:04:46.666Z,3.30
2019-02-08T07:07:39.102Z,3.30
2019-02-08T07:10:17.198Z,3.30
2019-02-08T07:13:07.629Z,3.30
2019-02-08T07:15:58.337Z,3.30
2019-02-08T07:18:32.787Z,3.30
2019-02-08T07:21:20.189Z,3.30
2019-02-08T07:23:58.841Z,3.40
2019-02-08T07:27:04.248Z,3.50
2019-02-08T07:29:50.859Z,3.50
2019-02-08T07:32:38.537Z,3.50
2019-02-08T07:35:25.045Z,3.60
2019-02-08T07:38:13.121Z,3.60
2019-02-08T07:41:10.409Z,3.60
2019-02-08T07:44:06.845Z,3.70
2019-02-08T07:47:03.501Z,3.70
2019-02-08T07:49:54.389Z,3.80
2019-02-08T07:52:33.043Z,3.90
2019-02-08T07:55:07.876Z,4.00
2019-02-08T07:57:53.669Z,4.00
2019-02-08T08:00:45.147Z,4.00
2019-02-08T08:03:42.499Z,4.10
2019-02-08T08:06:35.975Z,4.10
2019-02-08T08:09:27.859Z,4.10
2019-02-08T08:12:06.694Z,4.10
2019-02-08T08:15:00.037Z,4.20
2019-02-08T08:17:50.215Z,4.20
2019-02-08T08:20:50.938Z,4.30
2019-02-08T08:23:36.518Z,4.40
2019-02-08T08:26:42.390Z,4.50
2019-02-08T08:29:35.691Z,4.60
2019-02-08T08:32:19.157Z,4.60
2019-02-08T08:36:00.127Z,4.60
2019-02-08T08:39:39.664Z,4.70
2019-02-08T08:42:23.951Z,4.80
2019-02-08T08:45:49.930Z,4.90
2019-02-08T08:48:46.736Z,5.00
2019-02-08T08:52:19.963Z,5.20
2019-02-08T08:55:42.263Z,5.40
2019-02-08T08:59:24.479Z,5.50
2019-02-08T09:02:54.240Z,5.70
2019-02-08T09:06:10.636Z,5.70
2019-02-08T09:10:09.391Z,5.80
2019-02-08T09:13:30.686Z,5.90
2019-02-08T09:17:17.705Z,5.90
2019-02-08T09:20:54.888Z,6.10
2019-02-08T09:24:25.575Z,6.30
2019-02-08T09:30:20.595Z,8.20
2019-02-08T09:33:45.465Z,9.50
2019-02-08T09:37:34.984Z,11.20
2019-02-08T09:41:09.191Z,12.70
2019-02-08T09:44:35.213Z,13.90
2019-02-08T09:48:00.089Z,13.60
2019-02-08T09:51:15.912Z,14.20
2019-02-08T09:54:47.083Z,13.80
2019-02-08T09:58:26.413Z,13.70
2019-02-08T10:01:46.666Z,13.60
2019-02-08T10:05:17.955Z,13.80
2019-02-08T10:08:40.698Z,13.50
2019-02-08T10:12:03.022Z,13.80
2019-02-08T10:15:55.676Z,13.90
2019-02-08T10:19:23.868Z,14.20
2019-02-08T10:22:49.421Z,14.40
2019-02-08T10:26:11.521Z,15.40
2019-02-08T10:29:43.310Z,16.70
2019-02-08T10:33:36.138Z,16.80
2019-02-08T10:37:08.122Z,17.60
2019-02-08T10:40:40.749Z,18.50
2019-02-08T10:44:25.276Z,18.60
2019-02-08T10:48:02.854Z,17.80
2019-02-08T10:51:37.538Z,16.70
2019-02-08T10:54:58.275Z,15.30
2019-02-08T10:58:24.519Z,14.00
2019-02-08T11:02:07.269Z,13.80
2019-02-08T11:05:55.152Z,13.20
2019-02-08T11:09:19.987Z,13.50
2019-02-08T11:12:43.704Z,13.00
2019-02-08T11:16:27.565Z,12.30
2019-02-08T11:19:23.163Z,11.50
2019-02-08T11:21:54.217Z,12.40
2019-02-08T11:24:24.024Z,13.80
2019-02-08T11:26:52.245Z,15.20
2019-02-08T11:29:20.017Z,16.30
2019-02-08T11:31:47.835Z,17.80
2019-02-08T11:34:15.575Z,18.90
2019-02-08T11:36:43.501Z,19.50
2019-02-08T11:39:14.399Z,20.10
2019-02-08T11:41:44.591Z,20.70
2019-02-08T11:44:12.532Z,21.70
2019-02-08T11:46:40.407Z,21.90
2019-02-08T11:49:08.386Z,20.60
2019-02-08T11:51:36.141Z,19.30
2019-02-08T11:54:04.696Z,17.90
2019-02-08T11:56:32.459Z,18.10
2019-02-08T11:59:00.202Z,17.60
2019-02-08T12:01:30.868Z,16.00
2019-02-08T12:03:58.630Z,14.40
2019-02-08T12:06:26.387Z,13.30
2019-02-08T12:08:54.133Z,12.80
2019-02-08T12:11:21.887Z,12.20
2019-02-08T12:13:49.665Z,11.60
2019-02-08T12:16:17.500Z,11.40
2019-02-08T12:18:45.372Z,11.10
2019-02-08T12:21:13.138Z,11.80
2019-02-08T12:23:40.887Z,12.20
2019-02-08T12:26:08.648Z,11.70
2019-02-08T12:28:36.408Z,11.20
2019-02-08T12:31:04.296Z,10.90
2019-02-08T12:33:32.065Z,10.80
2019-02-08T12:35:59.802Z,10.80
2019-02-08T12:38:27.568Z,10.70
2019-02-08T12:40:55.318Z,10.70
2019-02-08T12:43:23.089Z,10.50
2019-02-08T12:45:50.822Z,10.60
2019-02-08T12:48:18.656Z,10.60
2019-02-08T12:50:46.387Z,10.50
2019-02-08T12:53:14.185Z,10.50
2019-02-08T12:55:41.963Z,10.50
2019-02-08T12:58:09.900Z,10.50
2019-02-08T13:00:37.688Z,10.30
2019-02-08T13:03:05.492Z,10.40
2019-02-08T13:05:33.262Z,10.30
2019-02-08T13:08:01.090Z,10.50
2019-02-08T13:10:29.841Z,10.60
2019-02-08T13:12:57.723Z,10.60
2019-02-08T13:15:26.757Z,10.70
2019-02-08T13:17:54.571Z,10.70
2019-02-08T13:20:22.566Z,10.80
2019-02-08T13:22:53.381Z,10.70
2019-02-08T13:25:21.310Z,10.30
2019-02-08T13:27:49.455Z,10.20
2019-02-08T13:30:25.077Z,10.10
2019-02-08T13:32:52.981Z,10.10
2019-02-08T13:35:20.782Z,10.00
2019-02-08T13:37:48.696Z,9.80
2019-02-08T13:40:17.974Z,9.80
2019-02-08T13:42:45.858Z,9.80
2019-02-08T13:45:14.116Z,9.70
2019-02-08T13:47:41.934Z,9.70
2019-02-08T13:50:14.815Z,9.70
2019-02-08T13:52:42.644Z,9.70
2019-02-08T13:55:12.381Z,9.70
2019-02-08T13:57:40.202Z,9.70
2019-02-08T14:00:14.474Z,9.60
2019-02-08T14:02:42.728Z,9.70
2019-02-08T14:05:10.715Z,9.70
2019-02-08T14:07:38.567Z,9.80
2019-02-08T14:10:09.461Z,9.90
2019-02-08T14:12:37.392Z,9.90
2019-02-08T14:15:06.534Z,9.80
2019-02-08T14:17:34.339Z,9.80
2019-02-08T14:20:02.289Z,9.80
2019-02-08T14:22:30.048Z,9.80
2019-02-08T14:24:57.811Z,9.80
2019-02-08T14:27:25.637Z,9.80
2019-02-08T14:29:53.436Z,9.70
2019-02-08T14:32:21.273Z,9.70
2019-02-08T14:34:49.114Z,9.70
2019-02-08T14:37:16.915Z,9.70
2019-02-08T14:39:44.756Z,9.60
2019-02-08T14:42:12.512Z,9.50
2019-02-08T14:44:40.724Z,9.40
2019-02-08T14:47:08.703Z,9.30
2019-02-08T14:49:36.512Z,9.20
2019-02-08T14:52:04.424Z,9.20
2019-02-08T14:54:32.267Z,9.20
2019-02-08T14:57:00.021Z,9.20
2019-02-08T14:59:27.893Z,9.30
2019-02-08T15:01:55.683Z,9.30
2019-02-08T15:04:23.504Z,9.30
2019-02-08T15:06:51.339Z,9.40
2019-02-08T15:09:20.169Z,9.50
2019-02-08T15:11:48.117Z,9.50
2019-02-08T15:14:15.905Z,9.50
2019-02-08T15:16:43.713Z,9.40
2019-02-08T15:19:11.516Z,9.30
2019-02-08T15:21:39.321Z,9.30
2019-02-08T15:24:07.126Z,9.20
2019-02-08T15:26:34.955Z,9.00
2019-02-08T15:29:02.812Z,8.90
2019-02-08T15:31:30.676Z,8.90
2019-02-08T15:33:58.617Z,8.70
2019-02-08T15:36:26.415Z,8.70
2019-02-08T15:38:54.280Z,8.60
2019-02-08T15:41:22.094Z,8.50
2019-02-08T15:43:50.045Z,8.40
2019-02-08T15:46:17.989Z,8.30
2019-02-08T15:48:45.871Z,8.20
2019-02-08T15:51:13.668Z,8.10
2019-02-08T15:53:41.502Z,8.10
2019-02-08T15:56:13.452Z,8.00
2019-02-08T15:58:41.253Z,8.00
2019-02-08T16:01:10.739Z,7.90
2019-02-08T16:03:38.757Z,7.90
2019-02-08T16:06:06.696Z,7.80
2019-02-08T16:08:34.500Z,7.90
2019-02-08T16:11:02.270Z,7.80
2019-02-08T16:13:30.063Z,7.80
2019-02-08T16:15:57.817Z,7.80
2019-02-08T16:18:25.626Z,7.80
2019-02-08T16:20:53.458Z,7.80
2019-02-08T16:23:21.275Z,7.80
2019-02-08T16:25:49.129Z,7.70
2019-02-08T16:28:16.897Z,7.70
2019-02-08T16:30:44.660Z,7.70
2019-02-08T16:33:12.409Z,7.70
2019-02-08T16:35:40.193Z,7.70
2019-02-08T16:38:08.250Z,7.70
2019-02-08T16:40:36.158Z,7.70
2019-02-08T16:43:04.600Z,7.60
2019-02-08T16:45:33.570Z,7.70
2019-02-08T16:48:03.456Z,7.60
2019-02-08T16:50:31.727Z,7.60
2019-02-08T16:52:59.710Z,7.60
2019-02-08T16:55:27.712Z,7.60
2019-02-08T16:57:55.475Z,7.50
2019-02-08T17:00:26.609Z,7.60
2019-02-08T17:02:55.678Z,7.60
2019-02-08T17:05:24.233Z,7.60
2019-02-08T17:07:51.979Z,7.60
2019-02-08T17:10:19.815Z,7.50
2019-02-08T17:12:47.567Z,7.50
2019-02-08T17:15:18.901Z,7.50
2019-02-08T17:17:46.803Z,7.40
2019-02-08T17:20:30.185Z,7.40
2019-02-08T17:22:57.978Z,7.30
2019-02-08T17:25:25.872Z,7.30
2019-02-08T17:27:55.402Z,7.30
2019-02-08T17:30:23.965Z,7.30
2019-02-08T17:32:51.747Z,7.30
2019-02-08T17:35:20.382Z,7.20
2019-02-08T17:37:48.164Z,7.20
2019-02-08T17:40:19.083Z,7.20
2019-02-08T17:42:46.885Z,7.20
2019-02-08T17:45:16.520Z,7.10
2019-02-08T17:47:44.593Z,7.10
2019-02-08T17:50:15.995Z,7.10
2019-02-08T17:52:43.777Z,7.10
2019-02-08T17:55:13.061Z,7.00
2019-02-08T17:57:40.903Z,7.00
2019-02-08T18:00:25.017Z,7.00
2019-02-08T18:02:52.884Z,6.90
2019-02-08T18:05:20.747Z,6.90
2019-02-08T18:07:48.578Z,6.80
2019-02-08T18:10:18.589Z,6.70
2019-02-08T18:12:46.388Z,6.70
2019-02-08T18:15:17.763Z,6.70
2019-02-08T18:17:45.600Z,6.60
2019-02-08T18:20:18.551Z,6.60
2019-02-08T18:22:46.322Z,6.60
2019-02-08T18:25:14.590Z,6.70
2019-02-08T18:27:42.377Z,6.70
2019-02-08T18:30:12.446Z,6.60
2019-02-08T18:32:42.919Z,6.60
2019-02-08T18:35:10.770Z,6.50
2019-02-08T18:37:38.610Z,6.50
2019-02-08T18:40:08.749Z,6.50
2019-02-08T18:42:36.547Z,6.50
2019-02-08T18:45:05.880Z,6.50
2019-02-08T18:47:33.676Z,6.50
2019-02-08T18:50:01.521Z,6.50
2019-02-08T18:52:29.560Z,6.50
2019-02-08T18:54:57.408Z,6.50
2019-02-08T18:57:25.222Z,6.50
2019-02-08T18:59:53.033Z,6.50
2019-02-08T19:02:20.824Z,6.40
2019-02-08T19:04:48.644Z,6.40
2019-02-08T19:07:16.475Z,6.40
2019-02-08T19:09:44.339Z,6.40
2019-02-08T19:12:12.409Z,6.40
2019-02-08T19:14:40.194Z,6.40
2019-02-08T19:17:08.019Z,6.40
2019-02-08T19:19:35.871Z,6.40
2019-02-08T19:22:03.979Z,6.40
2019-02-08T19:24:31.826Z,6.30
2019-02-08T19:26:59.594Z,6.40
2019-02-08T19:29:27.514Z,6.30
2019-02-08T19:31:55.315Z,6.30
2019-02-08T19:34:23.080Z,6.30
2019-02-08T19:36:51.000Z,6.40
2019-02-08T19:39:18.877Z,6.40
2019-02-08T19:41:46.981Z,6.30
2019-02-08T19:44:15.027Z,6.40
2019-02-08T19:46:42.918Z,6.30
2019-02-08T19:49:10.819Z,6.40
2019-02-08T19:51:38.896Z,6.40
2019-02-08T19:54:06.850Z,6.40
2019-02-08T19:56:34.761Z,6.40
2019-02-08T19:59:02.795Z,6.40
2019-02-08T20:01:30.745Z,6.40
2019-02-08T20:03:58.860Z,6.40
2019-02-08T20:06:26.808Z,6.40
2019-02-08T20:08:54.611Z,6.40
2019-02-08T20:11:22.531Z,6.40
2019-02-08T20:13:50.438Z,6.40
2019-02-08T20:16:18.448Z,6.40
2019-02-08T20:18:46.434Z,6.50
2019-02-08T20:21:14.756Z,6.40
2019-02-08T20:23:42.756Z,6.40
2019-02-08T20:26:10.785Z,6.40
2019-02-08T20:28:42.485Z,6.40
2019-02-08T20:31:08.564Z,6.40
2019-02-08T20:33:36.417Z,6.40
2019-02-08T20:36:04.672Z,6.40
2019-02-08T20:38:32.577Z,6.50
2019-02-08T20:41:01.612Z,6.40
2019-02-08T20:43:29.588Z,6.50
2019-02-08T20:45:57.467Z,6.50
2019-02-08T20:48:25.286Z,6.50
2019-02-08T20:50:53.202Z,6.40
2019-02-08T20:53:21.498Z,6.50
2019-02-08T20:55:49.814Z,6.40
2019-02-08T20:58:17.783Z,6.50
2019-02-08T21:00:50.164Z,6.40
2019-02-08T21:03:18.613Z,6.40
2019-02-08T21:05:47.883Z,6.40
2019-02-08T21:08:17.724Z,6.40
2019-02-08T21:10:45.596Z,6.50
2019-02-08T21:13:13.896Z,6.50
2019-02-08T21:15:42.007Z,6.50
2019-02-08T21:18:10.992Z,6.40
2019-02-08T21:20:40.595Z,6.40
2019-02-08T21:23:10.353Z,6.40
2019-02-08T21:25:38.435Z,6.40
2019-02-08T21:28:07.008Z,6.40
2019-02-08T21:30:35.017Z,6.30
2019-02-08T21:33:04.191Z,6.30
2019-02-08T21:35:32.099Z,6.30
2019-02-08T21:38:00.039Z,6.20
2019-02-08T21:40:27.942Z,6.20
2019-02-08T21:42:57.281Z,6.20
2019-02-08T21:45:28.678Z,6.10
2019-02-08T21:47:56.529Z,6.20
2019-02-08T21:50:24.506Z,6.20
2019-02-08T21:52:52.540Z,6.10
2019-02-08T21:55:20.610Z,6.10
2019-02-08T21:57:48.414Z,6.10
2019-02-08T22:00:27.612Z,6.10
2019-02-08T22:02:56.527Z,6.10
2019-02-08T22:05:51.977Z,6.10
2019-02-08T22:08:19.776Z,6.00
2019-02-08T22:10:47.544Z,6.00
2019-02-08T22:13:15.328Z,6.00
2019-02-08T22:15:43.217Z,6.10
2019-02-08T22:18:11.119Z,6.10
2019-02-08T22:20:39.215Z,6.20
2019-02-08T22:23:07.269Z,6.10
2019-02-08T22:25:35.194Z,6.20
2019-02-08T22:28:03.131Z,6.20
2019-02-08T22:30:31.055Z,6.20
2019-02-08T22:32:59.130Z,6.10
2019-02-08T22:35:27.161Z,6.10
2019-02-08T22:37:54.950Z,6.10
2019-02-08T22:40:22.845Z,6.00
2019-02-08T22:42:50.738Z,6.10
2019-02-08T22:45:30.684Z,6.10
2019-02-08T22:47:58.458Z,6.10
2019-02-08T22:50:26.370Z,6.10
2019-02-08T22:52:54.135Z,6.10
2019-02-08T22:55:24.280Z,6.20
2019-02-08T22:57:51.997Z,6.30
2019-02-08T23:01:23.842Z,6.30
2019-02-08T23:03:53.037Z,6.30
2019-02-08T23:06:20.794Z,6.40
2019-02-08T23:08:48.669Z,6.40
2019-02-08T23:11:16.429Z,6.40
2019-02-08T23:13:44.199Z,6.40
2019-02-08T23:16:12.524Z,6.40
2019-02-08T23:18:40.270Z,6.40
2019-02-08T23:21:08.127Z,6.40
2019-02-08T23:23:35.890Z,6.40
2019-02-08T23:26:04.256Z,6.40
2019-02-08T23:28:31.984Z,6.30
2019-02-08T23:30:59.785Z,6.40
2019-02-08T23:33:27.515Z,6.40
2019-02-08T23:35:55.323Z,6.40
2019-02-08T23:38:23.077Z,6.30
2019-02-08T23:40:50.840Z,6.30
2019-02-08T23:43:18.689Z,6.30
2019-02-08T23:45:46.442Z,6.30
2019-02-08T23:48:14.206Z,6.20
2019-02-08T23:50:41.977Z,6.20
2019-02-08T23:53:09.735Z,6.20
2019-02-08T23:55:37.561Z,6.20
2019-02-08T23:58:06.459Z,6.20
